createdAt,value
2017-12-01T00:00:16.480Z,8.50
2017-12-01T00:02:50.958Z,7.23
2017-12-01T00:05:25.399Z,10.47
2017-12-01T00:07:59.867Z,10.40
2017-12-01T00:10:34.254Z,9.20
2017-12-01T00:13:08.882Z,11.13
2017-12-01T00:15:43.284Z,12.70
2017-12-01T00:18:17.900Z,16.53
2017-12-01T00:20:52.350Z,13.53
2017-12-01T00:23:27.633Z,12.80
2017-12-01T00:26:02.226Z,12.27
2017-12-01T00:28:36.798Z,17.40
2017-12-01T00:31:11.211Z,7.03
2017-12-01T00:33:45.578Z,8.53
2017-12-01T00:36:20.097Z,9.80
2017-12-01T00:38:54.858Z,11.50
2017-12-01T00:41:29.239Z,9.63
2017-12-01T00:44:03.770Z,7.60
2017-12-01T00:46:38.154Z,8.60
2017-12-01T00:49:12.633Z,7.23
2017-12-01T00:51:47.161Z,7.93
2017-12-01T00:54:21.677Z,8.77
2017-12-01T00:56:56.035Z,9.30
2017-12-01T00:59:30.498Z,14.17
2017-12-01T01:02:04.842Z,17.43
2017-12-01T01:04:39.318Z,8.20
2017-12-01T01:07:13.691Z,9.40
2017-12-01T01:09:48.055Z,13.00
2017-12-01T01:12:22.453Z,9.77
2017-12-01T01:14:57.034Z,10.87
2017-12-01T01:17:31.430Z,11.70
2017-12-01T01:20:06.291Z,16.03
2017-12-01T01:22:40.322Z,11.10
2017-12-01T01:25:14.606Z,9.80
2017-12-01T01:27:49.152Z,16.23
2017-12-01T01:30:23.565Z,16.97
2017-12-01T01:32:58.602Z,10.20
2017-12-01T01:35:33.044Z,11.13
2017-12-01T01:38:07.562Z,11.17
2017-12-01T01:40:41.612Z,13.50
2017-12-01T01:43:15.762Z,12.20
2017-12-01T01:45:49.832Z,13.57
2017-12-01T01:48:24.032Z,10.20
2017-12-01T01:50:58.160Z,14.50
2017-12-01T01:53:32.861Z,14.77
2017-12-01T01:56:06.950Z,13.13
2017-12-01T01:58:41.213Z,12.80
2017-12-01T02:01:15.594Z,12.33
2017-12-01T02:03:50.002Z,13.40
2017-12-01T02:06:24.392Z,12.03
2017-12-01T02:08:58.565Z,15.00
2017-12-01T02:11:32.623Z,16.13
2017-12-01T02:14:06.683Z,10.40
2017-12-01T02:16:41.070Z,17.17
2017-12-01T02:19:15.150Z,12.33
2017-12-01T02:21:49.456Z,16.10
2017-12-01T02:24:23.562Z,11.57
2017-12-01T02:26:57.814Z,12.80
2017-12-01T02:29:31.882Z,15.07
2017-12-01T02:32:05.955Z,11.67
2017-12-01T02:34:40.225Z,12.03
2017-12-01T02:37:14.481Z,13.70
2017-12-01T02:39:48.761Z,11.13
2017-12-01T02:42:22.882Z,12.60
2017-12-01T02:44:56.994Z,14.30
2017-12-01T02:47:31.174Z,13.17
2017-12-01T02:50:06.012Z,13.17
2017-12-01T02:52:40.076Z,14.53
2017-12-01T02:55:14.148Z,13.50
2017-12-01T02:57:48.263Z,14.83
2017-12-01T03:00:22.486Z,13.90
2017-12-01T03:02:56.525Z,14.00
2017-12-01T03:05:30.702Z,17.53
2017-12-01T03:08:04.962Z,13.40
2017-12-01T03:10:39.111Z,17.20
2017-12-01T03:13:13.427Z,14.50
2017-12-01T03:15:47.389Z,17.20
2017-12-01T03:18:21.476Z,13.70
2017-12-01T03:20:55.752Z,15.67
2017-12-01T03:23:30.019Z,17.00
2017-12-01T03:26:04.194Z,15.00
2017-12-01T03:28:38.500Z,19.27
2017-12-01T03:31:12.714Z,16.90
2017-12-01T03:33:47.083Z,14.20
2017-12-01T03:36:21.241Z,18.27
2017-12-01T03:38:55.038Z,14.67
2017-12-01T03:41:29.137Z,17.20
2017-12-01T03:44:03.583Z,23.07
2017-12-01T03:46:37.758Z,20.23
2017-12-01T03:49:11.890Z,15.80
2017-12-01T03:51:46.095Z,18.97
2017-12-01T03:54:20.385Z,18.77
2017-12-01T03:56:54.658Z,15.10
2017-12-01T03:59:28.786Z,19.00
2017-12-01T04:02:02.733Z,18.13
2017-12-01T04:04:36.946Z,21.93
2017-12-01T04:07:11.030Z,19.20
2017-12-01T04:09:45.162Z,17.43
2017-12-01T04:12:19.264Z,17.50
2017-12-01T04:14:53.545Z,21.23
2017-12-01T04:17:27.784Z,18.40
2017-12-01T04:20:01.989Z,23.27
2017-12-01T04:22:36.086Z,17.80
2017-12-01T04:25:10.146Z,19.23
2017-12-01T04:27:44.210Z,19.17
2017-12-01T04:30:18.360Z,20.33
2017-12-01T04:32:52.871Z,16.63
2017-12-01T04:35:26.954Z,21.50
2017-12-01T04:38:01.126Z,23.17
2017-12-01T04:40:35.183Z,16.47
2017-12-01T04:43:09.405Z,22.93
2017-12-01T04:45:43.575Z,19.53
2017-12-01T04:48:17.843Z,22.90
2017-12-01T04:50:52.946Z,23.80
2017-12-01T04:53:27.082Z,22.30
2017-12-01T04:56:01.171Z,19.90
2017-12-01T04:58:35.417Z,20.10
2017-12-01T05:01:09.494Z,23.53
2017-12-01T05:03:43.747Z,22.30
2017-12-01T05:06:17.881Z,20.73
2017-12-01T05:08:52.699Z,26.27
2017-12-01T05:11:27.195Z,23.93
2017-12-01T05:14:01.354Z,19.77
2017-12-01T05:16:35.434Z,22.20
2017-12-01T05:19:09.606Z,18.37
2017-12-01T05:21:43.654Z,23.97
2017-12-01T05:24:17.743Z,28.30
2017-12-01T05:26:52.005Z,23.17
2017-12-01T05:29:26.067Z,26.73
2017-12-01T05:32:00.146Z,23.67
2017-12-01T05:34:34.315Z,26.20
2017-12-01T05:37:09.930Z,25.90
2017-12-01T05:39:44.239Z,24.70
2017-12-01T05:42:18.434Z,27.57
2017-12-01T05:44:52.377Z,25.87
2017-12-01T05:47:26.456Z,25.87
2017-12-01T05:50:00.658Z,21.83
2017-12-01T05:52:34.820Z,29.13
2017-12-01T05:55:10.611Z,23.37
2017-12-01T05:57:44.886Z,26.83
2017-12-01T06:00:18.922Z,26.57
2017-12-01T06:02:52.958Z,24.47
2017-12-01T06:05:27.087Z,30.70
2017-12-01T06:08:01.350Z,30.73
2017-12-01T06:10:35.510Z,32.53
2017-12-01T06:13:09.742Z,35.20
2017-12-01T06:15:43.583Z,28.37
2017-12-01T06:18:17.623Z,27.17
2017-12-01T06:20:51.775Z,29.00
2017-12-01T06:23:25.873Z,23.57
2017-12-01T06:25:59.962Z,26.80
2017-12-01T06:28:33.982Z,27.23
2017-12-01T06:31:08.251Z,25.23
2017-12-01T06:33:42.438Z,30.27
2017-12-01T06:36:16.582Z,40.30
2017-12-01T06:38:50.856Z,30.33
2017-12-01T06:41:25.449Z,27.97
2017-12-01T06:43:59.594Z,31.37
2017-12-01T06:46:34.002Z,35.67
2017-12-01T06:49:08.246Z,44.80
2017-12-01T06:51:42.286Z,38.10
2017-12-01T06:54:16.794Z,33.20
2017-12-01T06:56:50.911Z,35.37
2017-12-01T06:59:24.885Z,30.57
2017-12-01T07:01:59.322Z,34.50
2017-12-01T07:04:34.074Z,30.80
2017-12-01T07:07:07.990Z,27.17
2017-12-01T07:09:42.522Z,29.03
2017-12-01T07:12:16.773Z,25.60
2017-12-01T07:14:51.156Z,30.00
2017-12-01T07:17:25.510Z,25.83
2017-12-01T07:19:59.911Z,28.90
2017-12-01T07:22:35.458Z,23.60
2017-12-01T07:25:14.662Z,25.00
2017-12-01T07:27:49.254Z,26.67
2017-12-01T07:30:23.663Z,20.93
2017-12-01T07:32:58.050Z,22.90
2017-12-01T07:35:32.599Z,30.87
2017-12-01T07:38:06.991Z,29.47
2017-12-01T07:40:42.115Z,23.47
2017-12-01T07:43:16.546Z,22.17
2017-12-01T07:45:50.810Z,26.10
2017-12-01T07:48:25.095Z,23.40
2017-12-01T07:50:59.374Z,20.43
2017-12-01T07:53:33.795Z,20.10
2017-12-01T07:56:07.958Z,19.40
2017-12-01T07:58:42.282Z,24.60
2017-12-01T08:01:16.995Z,20.03
2017-12-01T08:03:52.066Z,19.37
2017-12-01T08:06:26.398Z,17.03
2017-12-01T08:09:00.830Z,18.73
2017-12-01T08:11:35.097Z,23.70
2017-12-01T08:14:09.498Z,25.10
2017-12-01T08:16:54.858Z,25.73
2017-12-01T08:19:29.094Z,22.80
2017-12-01T08:22:14.297Z,28.60
2017-12-01T08:24:59.710Z,20.53
2017-12-01T08:27:34.010Z,26.50
2017-12-01T08:30:14.875Z,27.60
2017-12-01T08:32:49.281Z,29.53
2017-12-01T08:35:23.771Z,23.77
2017-12-01T08:37:58.351Z,22.47
2017-12-01T08:40:32.395Z,24.63
2017-12-01T08:43:06.776Z,20.60
2017-12-01T08:45:41.163Z,18.33
2017-12-01T08:48:15.690Z,17.13
2017-12-01T08:50:50.202Z,15.80
2017-12-01T08:53:24.773Z,18.07
2017-12-01T08:55:59.220Z,22.20
2017-12-01T08:58:33.713Z,23.23
2017-12-01T09:01:07.878Z,17.53
2017-12-01T09:03:42.377Z,17.67
2017-12-01T09:06:16.442Z,19.90
2017-12-01T09:08:50.943Z,22.43
2017-12-01T09:11:25.452Z,25.20
2017-12-01T09:13:59.829Z,28.30
2017-12-01T09:16:34.858Z,18.07
2017-12-01T09:19:09.331Z,14.47
2017-12-01T09:21:44.026Z,12.50
2017-12-01T09:24:18.407Z,17.20
2017-12-01T09:26:52.634Z,15.40
2017-12-01T09:29:27.217Z,18.00
2017-12-01T09:32:01.694Z,16.37
2017-12-01T09:34:36.178Z,16.23
2017-12-01T09:37:11.114Z,18.30
2017-12-01T09:39:45.622Z,25.00
2017-12-01T09:42:19.822Z,23.23
2017-12-01T09:44:53.958Z,23.10
2017-12-01T09:47:28.384Z,22.97
2017-12-01T09:50:03.178Z,21.93
2017-12-01T09:52:37.619Z,23.37
2017-12-01T09:55:12.128Z,18.73
2017-12-01T09:57:46.248Z,19.23
2017-12-01T10:00:20.150Z,15.90
2017-12-01T10:02:54.527Z,20.80
2017-12-01T10:05:28.706Z,22.40
2017-12-01T10:08:02.887Z,22.57
2017-12-01T10:10:38.124Z,19.20
2017-12-01T10:13:12.644Z,14.53
2017-12-01T10:15:46.997Z,16.53
2017-12-01T10:18:21.646Z,17.40
2017-12-01T10:20:55.526Z,12.63
2017-12-01T10:23:29.915Z,15.23
2017-12-01T10:26:04.394Z,14.33
2017-12-01T10:28:38.834Z,14.60
2017-12-01T10:31:13.234Z,15.30
2017-12-01T10:33:47.819Z,12.47
2017-12-01T10:36:22.137Z,18.07
2017-12-01T10:38:56.755Z,13.27
2017-12-01T10:41:31.287Z,10.03
2017-12-01T10:44:06.411Z,10.57
2017-12-01T10:46:40.942Z,15.30
2017-12-01T10:49:15.454Z,18.93
2017-12-01T10:51:49.487Z,19.37
2017-12-01T10:54:23.854Z,12.37
2017-12-01T10:56:58.262Z,13.57
2017-12-01T10:59:32.328Z,11.77
2017-12-01T11:02:06.786Z,13.87
2017-12-01T11:04:41.377Z,12.57
2017-12-01T11:07:15.784Z,10.53
2017-12-01T11:09:50.278Z,8.10
2017-12-01T11:12:24.716Z,7.30
2017-12-01T11:14:59.074Z,6.20
2017-12-01T11:17:33.445Z,8.37
2017-12-01T11:20:09.266Z,7.93
2017-12-01T11:22:43.940Z,6.93
2017-12-01T11:25:18.318Z,10.90
2017-12-01T11:27:53.607Z,7.67
2017-12-01T11:30:28.801Z,10.20
2017-12-01T11:33:03.090Z,7.50
2017-12-01T11:35:37.542Z,6.53
2017-12-01T11:38:11.930Z,7.20
2017-12-01T11:40:46.394Z,5.97
2017-12-01T11:43:20.921Z,6.17
2017-12-01T11:45:55.366Z,8.30
2017-12-01T11:48:29.858Z,6.20
2017-12-01T11:51:04.540Z,11.23
2017-12-01T11:53:39.001Z,9.57
2017-12-01T11:56:13.406Z,18.37
2017-12-01T11:58:47.906Z,8.30
2017-12-01T12:01:21.752Z,8.67
2017-12-01T12:03:56.351Z,8.53
2017-12-01T12:06:30.452Z,9.30
2017-12-01T12:09:04.339Z,8.20
2017-12-01T12:11:38.410Z,9.73
2017-12-01T12:14:12.586Z,8.73
2017-12-01T12:16:47.176Z,10.73
2017-12-01T12:19:21.358Z,7.60
2017-12-01T12:21:55.765Z,6.70
2017-12-01T12:24:29.854Z,8.87
2017-12-01T12:27:04.601Z,10.97
2017-12-01T12:29:38.781Z,21.03
2017-12-01T12:32:13.128Z,8.13
2017-12-01T12:34:47.302Z,12.30
2017-12-01T12:37:21.358Z,8.27
2017-12-01T12:39:55.429Z,10.10
2017-12-01T12:42:29.579Z,13.40
2017-12-01T12:45:09.671Z,8.40
2017-12-01T12:47:43.778Z,9.10
2017-12-01T12:50:18.210Z,10.10
2017-12-01T12:52:52.581Z,16.60
2017-12-01T12:55:26.970Z,12.63
2017-12-01T12:58:00.998Z,9.80
2017-12-01T13:00:34.771Z,8.33
2017-12-01T13:03:08.951Z,9.63
2017-12-01T13:05:43.018Z,8.27
2017-12-01T13:08:17.228Z,8.37
2017-12-01T13:10:52.163Z,11.83
2017-12-01T13:13:26.454Z,12.27
2017-12-01T13:16:00.357Z,21.47
2017-12-01T13:18:34.430Z,8.60
2017-12-01T13:21:08.610Z,9.63
2017-12-01T13:23:42.814Z,9.63
2017-12-01T13:26:19.271Z,13.00
2017-12-01T13:28:53.398Z,10.30
2017-12-01T13:31:28.191Z,9.70
2017-12-01T13:34:02.438Z,14.67
2017-12-01T13:36:36.875Z,14.00
2017-12-01T13:39:11.014Z,15.00
2017-12-01T13:41:45.082Z,11.80
2017-12-01T13:44:19.170Z,12.67
2017-12-01T13:46:53.609Z,14.17
2017-12-01T13:49:27.756Z,16.90
2017-12-01T13:52:04.693Z,22.40
2017-12-01T13:54:39.887Z,18.87
2017-12-01T13:57:14.406Z,17.60
2017-12-01T13:59:48.847Z,13.67
2017-12-01T14:02:22.779Z,15.47
2017-12-01T14:04:57.698Z,12.87
2017-12-01T14:07:31.898Z,16.87
2017-12-01T14:10:12.138Z,13.23
2017-12-01T14:12:46.704Z,16.80
2017-12-01T14:15:21.171Z,26.90
2017-12-01T14:17:55.813Z,14.50
2017-12-01T14:20:30.222Z,15.90
2017-12-01T14:23:04.710Z,13.37
2017-12-01T14:25:39.346Z,20.80
2017-12-01T14:28:13.866Z,16.07
2017-12-01T14:30:48.334Z,15.47
2017-12-01T14:33:22.810Z,20.43
2017-12-01T14:35:57.936Z,23.63
2017-12-01T14:38:32.554Z,27.03
2017-12-01T14:41:06.990Z,21.40
2017-12-01T14:43:41.903Z,17.23
2017-12-01T14:46:16.322Z,21.57
2017-12-01T14:48:50.942Z,21.43
2017-12-01T14:51:26.004Z,20.40
2017-12-01T14:54:00.710Z,20.93
2017-12-01T14:56:35.106Z,19.43
2017-12-01T14:59:09.630Z,22.73
2017-12-01T15:01:43.982Z,24.33
2017-12-01T15:04:18.575Z,26.03
2017-12-01T15:06:53.513Z,25.60
2017-12-01T15:09:28.046Z,19.57
2017-12-01T15:12:03.918Z,27.93
2017-12-01T15:14:39.321Z,30.30
2017-12-01T15:17:13.865Z,19.43
2017-12-01T15:19:48.279Z,20.10
2017-12-01T15:22:24.039Z,23.83
2017-12-01T15:25:00.450Z,26.20
2017-12-01T15:27:37.946Z,22.43
2017-12-01T15:30:12.376Z,22.50
2017-12-01T15:32:49.422Z,19.13
2017-12-01T15:35:23.947Z,21.80
2017-12-01T15:37:58.441Z,20.73
2017-12-01T15:40:32.638Z,24.87
2017-12-01T15:43:06.910Z,27.47
2017-12-01T15:45:40.958Z,25.20
2017-12-01T15:48:15.349Z,25.93
2017-12-01T15:50:49.919Z,20.40
2017-12-01T15:53:24.527Z,25.73
2017-12-01T15:55:58.774Z,24.03
2017-12-01T15:58:40.930Z,23.40
2017-12-01T16:01:15.148Z,24.90
2017-12-01T16:03:49.264Z,23.93
2017-12-01T16:06:23.419Z,24.13
2017-12-01T16:08:57.681Z,24.83
2017-12-01T16:11:31.735Z,23.37
2017-12-01T16:14:09.438Z,27.77
2017-12-01T16:16:43.962Z,32.10
2017-12-01T16:19:18.073Z,25.67
2017-12-01T16:21:52.106Z,28.50
2017-12-01T16:24:26.206Z,27.40
2017-12-01T16:27:00.273Z,26.90
2017-12-01T16:29:35.402Z,26.40
2017-12-01T16:32:09.793Z,28.10
2017-12-01T16:34:44.342Z,30.80
2017-12-01T16:37:18.754Z,26.80
2017-12-01T16:39:53.297Z,30.80
2017-12-01T16:42:27.361Z,23.53
2017-12-01T16:45:01.862Z,26.70
2017-12-01T16:47:36.247Z,28.10
2017-12-01T16:50:15.451Z,30.60
2017-12-01T16:52:49.622Z,36.57
2017-12-01T16:55:23.708Z,38.87
2017-12-01T16:57:58.304Z,32.40
2017-12-01T17:00:32.772Z,32.80
2017-12-01T17:03:06.878Z,30.20
2017-12-01T17:05:41.063Z,27.43
2017-12-01T17:08:15.395Z,29.70
2017-12-01T17:10:49.553Z,28.53
2017-12-01T17:13:23.743Z,24.17
2017-12-01T17:15:59.204Z,28.87
2017-12-01T17:18:33.258Z,30.57
2017-12-01T17:21:07.446Z,33.27
2017-12-01T17:23:41.602Z,33.83
2017-12-01T17:26:17.074Z,31.50
2017-12-01T17:28:51.361Z,33.77
2017-12-01T17:31:27.098Z,26.20
2017-12-01T17:34:01.342Z,30.67
2017-12-01T17:36:35.410Z,28.90
2017-12-01T17:39:12.474Z,28.63
2017-12-01T17:41:52.762Z,47.93
2017-12-01T17:44:27.355Z,41.20
2017-12-01T17:47:02.030Z,32.60
2017-12-01T17:49:36.186Z,35.50
2017-12-01T17:52:10.199Z,34.97
2017-12-01T17:54:44.508Z,35.37
2017-12-01T17:57:18.663Z,33.87
2017-12-01T17:59:53.330Z,39.40
2017-12-01T18:02:27.594Z,35.13
2017-12-01T18:05:02.111Z,42.07
2017-12-01T18:07:36.162Z,47.03
2017-12-01T18:10:10.194Z,47.80
2017-12-01T18:12:44.426Z,182.93
2017-12-01T18:15:18.462Z,49.77
2017-12-01T18:17:52.754Z,41.00
2017-12-01T18:20:26.853Z,48.00
2017-12-01T18:23:01.287Z,50.60
2017-12-01T18:25:35.442Z,40.30
2017-12-01T18:28:09.608Z,44.97
2017-12-01T18:30:43.646Z,43.47
2017-12-01T18:33:17.877Z,42.27
2017-12-01T18:35:52.305Z,50.77
2017-12-01T18:38:26.560Z,47.90
2017-12-01T18:41:00.946Z,46.93
2017-12-01T18:43:35.113Z,55.53
2017-12-01T18:46:09.485Z,38.67
2017-12-01T18:48:43.990Z,47.17
2017-12-01T18:51:18.125Z,44.83
2017-12-01T18:53:52.382Z,43.33
2017-12-01T18:56:26.579Z,51.03
2017-12-01T18:59:00.674Z,47.00
2017-12-01T19:01:35.179Z,44.37
2017-12-01T19:04:09.798Z,40.60
2017-12-01T19:06:44.153Z,42.27
2017-12-01T19:09:18.353Z,45.13
2017-12-01T19:11:52.929Z,44.70
2017-12-01T19:14:27.371Z,44.90
2017-12-01T19:17:02.392Z,42.87
2017-12-01T19:19:36.591Z,49.90
2017-12-01T19:22:12.377Z,50.67
2017-12-01T19:24:46.438Z,46.10
2017-12-01T19:27:20.651Z,48.47
2017-12-01T19:29:55.092Z,47.13
2017-12-01T19:32:29.342Z,48.20
2017-12-01T19:35:03.576Z,38.33
2017-12-01T19:37:38.366Z,35.70
2017-12-01T19:40:12.841Z,38.30
2017-12-01T19:42:47.087Z,38.33
2017-12-01T19:45:21.211Z,37.87
2017-12-01T19:47:55.771Z,37.50
2017-12-01T19:50:33.971Z,38.60
2017-12-01T19:53:08.553Z,40.93
2017-12-01T19:55:46.083Z,40.83
2017-12-01T19:58:20.293Z,37.13
2017-12-01T20:00:55.313Z,41.20
2017-12-01T20:03:29.811Z,30.53
2017-12-01T20:06:07.979Z,31.23
2017-12-01T20:08:43.487Z,32.40
2017-12-01T20:11:17.532Z,34.37
2017-12-01T20:13:52.154Z,35.53
2017-12-01T20:16:26.088Z,34.20
2017-12-01T20:19:00.182Z,33.33
2017-12-01T20:21:34.353Z,34.30
2017-12-01T20:24:08.997Z,33.37
2017-12-01T20:26:43.209Z,43.53
2017-12-01T20:29:17.882Z,39.03
2017-12-01T20:31:52.705Z,45.60
2017-12-01T20:34:28.092Z,36.90
2017-12-01T20:37:02.410Z,41.80
2017-12-01T20:39:36.648Z,45.73
2017-12-01T20:42:10.641Z,38.10
2017-12-01T20:44:46.893Z,37.63
2017-12-01T20:47:25.479Z,43.43
2017-12-01T20:49:59.708Z,38.57
2017-12-01T20:52:33.985Z,43.47
2017-12-01T20:55:08.790Z,43.47
2017-12-01T20:57:42.923Z,40.03
2017-12-01T21:00:16.963Z,33.60
2017-12-01T21:02:51.457Z,40.50
2017-12-01T21:05:26.624Z,37.83
2017-12-01T21:08:00.892Z,37.90
2017-12-01T21:10:36.101Z,34.10
2017-12-01T21:13:10.863Z,35.80
2017-12-01T21:15:45.132Z,35.23
2017-12-01T21:18:19.174Z,42.77
2017-12-01T21:20:53.569Z,45.40
2017-12-01T21:23:28.104Z,38.33
2017-12-01T21:26:03.854Z,34.93
2017-12-01T21:28:38.550Z,43.07
2017-12-01T21:31:12.775Z,33.13
2017-12-01T21:33:46.831Z,35.27
2017-12-01T21:36:24.719Z,44.97
2017-12-01T21:38:59.518Z,39.30
2017-12-01T21:41:34.613Z,37.80
2017-12-01T21:44:09.046Z,37.10
2017-12-01T21:46:46.510Z,37.37
2017-12-01T21:49:22.124Z,35.90
2017-12-01T21:51:59.022Z,37.97
2017-12-01T21:54:34.435Z,42.00
2017-12-01T21:57:09.045Z,35.37
2017-12-01T21:59:48.348Z,45.40
2017-12-01T22:02:22.860Z,37.73
2017-12-01T22:04:58.108Z,37.40
2017-12-01T22:07:32.951Z,38.47
2017-12-01T22:10:07.529Z,36.87
2017-12-01T22:12:42.073Z,37.37
2017-12-01T22:15:21.023Z,36.13
2017-12-01T22:17:55.421Z,31.50
2017-12-01T22:20:29.578Z,43.43
2017-12-01T22:23:03.627Z,34.27
2017-12-01T22:25:39.000Z,35.97
2017-12-01T22:28:13.466Z,35.07
2017-12-01T22:30:47.855Z,35.87
2017-12-01T22:33:23.197Z,34.10
2017-12-01T22:35:57.774Z,36.03
2017-12-01T22:38:32.214Z,35.23
2017-12-01T22:41:06.571Z,34.07
2017-12-01T22:43:40.931Z,35.63
2017-12-01T22:46:15.920Z,35.43
2017-12-01T22:48:50.518Z,32.30
2017-12-01T22:51:24.881Z,40.30
2017-12-01T22:53:59.353Z,37.30
2017-12-01T22:56:34.020Z,36.33
2017-12-01T22:59:08.387Z,39.30
2017-12-01T23:01:42.834Z,38.07
2017-12-01T23:04:17.794Z,38.20
2017-12-01T23:06:52.380Z,32.27
2017-12-01T23:09:27.030Z,38.70
2017-12-01T23:12:01.498Z,36.10
2017-12-01T23:14:35.878Z,36.50
2017-12-01T23:17:10.335Z,43.23
2017-12-01T23:19:44.994Z,54.07
2017-12-01T23:22:19.355Z,44.90
2017-12-01T23:24:53.787Z,34.03
2017-12-01T23:27:28.094Z,41.10
2017-12-01T23:30:02.799Z,32.60
2017-12-01T23:32:37.975Z,34.93
2017-12-01T23:35:13.162Z,33.47
2017-12-01T23:37:47.775Z,35.17
2017-12-01T23:40:22.895Z,36.23
2017-12-01T23:42:57.457Z,40.53
2017-12-01T23:45:32.118Z,36.87
2017-12-01T23:48:06.626Z,36.37
2017-12-01T23:50:40.990Z,39.23
2017-12-01T23:53:15.770Z,34.37
2017-12-01T23:55:49.922Z,34.90
2017-12-01T23:58:24.276Z,31.47
